There are multiple Weather-warnings   Click here for more information


Meteo18 Weather Cam more information Meteo18 Weather Cam


warning for Thunderstorms more information blitzortung!


Rain radar more information rain snow radar


Visit our other weather sites:

Template documentation
and downloads

And another site



Weather Underground History page Text

Daily Summary for June 23, 2017 Units:  Both    English   Metric
« Previous Day
Next Day »
Daily Weekly Monthly Yearly Custom
  High: Low: Average:
Temperature: 78.4 °F /  25.8 °C 65.8 °F /  18.8 °C 71.8 °F /  22.1 °C
Dew Point: 64.2 °F /  17.9 °C 59.9 °F /  15.5 °C 62.1 °F /  16.7 °C
Humidity: 86 % 55 % 72 %
Wind Speed: 10 mph /  16.1 km/h - 1.9 mph /  3.1 km/h
Wind Gust: 13 mph /  20.9 km/h - -
Wind:- - West
Pressure: 30.2 in /  1022.2 hPa 30 in /  1016.5 hPa -
Precipitation: 0 in /  0.0 mm    
Historical Graphs
 
 
Tabular Data for June 23, 2017
Time Temperature Dew Point Pressure Wind Wind Speed Wind Gust Humidity Rainfall Rate (Hourly)
00:02 74.7 °F /  23.7 °C 60.8 °F /  16.0 °C 30 in /  1016.5 hPa SSW 1 mph /  1.6 km/h 2 mph /  3.2 km/h 62 % 0 in /  0.0 mm
00:12 74.7 °F /  23.7 °C 60.3 °F /  15.7 °C 30 in /  1016.5 hPa Calm   2 mph /  3.2 km/h 61 % 0 in /  0.0 mm
00:17 74.7 °F /  23.7 °C 60.3 °F /  15.7 °C 30 in /  1016.8 hPa Calm   2 mph /  3.2 km/h 61 % 0 in /  0.0 mm
00:22 74.5 °F /  23.6 °C 60.1 °F /  15.6 °C 30 in /  1016.8 hPa Calm   1 mph /  1.6 km/h 61 % 0 in /  0.0 mm
00:27 74.5 °F /  23.6 °C 60.1 °F /  15.6 °C 30 in /  1016.8 hPa Calm   1 mph /  1.6 km/h 61 % 0 in /  0.0 mm
00:32 74.3 °F /  23.5 °C 59.9 °F /  15.5 °C 30 in /  1016.8 hPa Calm     61 % 0 in /  0.0 mm
00:37 73.9 °F /  23.3 °C 60.1 °F /  15.6 °C 30 in /  1016.8 hPa Calm     62 % 0 in /  0.0 mm
00:42 73.6 °F /  23.1 °C 60.3 °F /  15.7 °C 30 in /  1017.2 hPa Calm   2 mph /  3.2 km/h 63 % 0 in /  0.0 mm
00:47 73.2 °F /  22.9 °C 60.3 °F /  15.7 °C 30 in /  1017.2 hPa Calm   1 mph /  1.6 km/h 64 % 0 in /  0.0 mm
00:52 72.9 °F /  22.7 °C 59.9 °F /  15.5 °C 30 in /  1017.2 hPa Calm   1 mph /  1.6 km/h 64 % 0 in /  0.0 mm
00:57 72.7 °F /  22.6 °C 60.3 °F /  15.7 °C 30 in /  1017.2 hPa Calm   1 mph /  1.6 km/h 65 % 0 in /  0.0 mm
01:02 72.3 °F /  22.4 °C 60.3 °F /  15.7 °C 30 in /  1017.2 hPa Calm   1 mph /  1.6 km/h 66 % 0 in /  0.0 mm
01:07 72.3 °F /  22.4 °C 60.3 °F /  15.7 °C 30 in /  1017.2 hPa Calm   1 mph /  1.6 km/h 66 % 0 in /  0.0 mm
01:12 72.3 °F /  22.4 °C 60.3 °F /  15.7 °C 30 in /  1017.2 hPa Calm   1 mph /  1.6 km/h 66 % 0 in /  0.0 mm
01:17 72.1 °F /  22.3 °C 60.1 °F /  15.6 °C 30 in /  1017.2 hPa Calm   1 mph /  1.6 km/h 66 % 0 in /  0.0 mm
01:22 71.8 °F /  22.1 °C 60.3 °F /  15.7 °C 30 in /  1017.2 hPa Calm   1 mph /  1.6 km/h 67 % 0 in /  0.0 mm
01:27 71.4 °F /  21.9 °C 60.3 °F /  15.7 °C 30 in /  1017.2 hPa Calm   1 mph /  1.6 km/h 68 % 0 in /  0.0 mm
01:32 71.2 °F /  21.8 °C 60.1 °F /  15.6 °C 30 in /  1017.2 hPa Calm   1 mph /  1.6 km/h 68 % 0 in /  0.0 mm
01:37 71.4 °F /  21.9 °C 60.3 °F /  15.7 °C 30 in /  1017.2 hPa Calm     68 % 0 in /  0.0 mm
01:42 71.8 °F /  22.1 °C 60.3 °F /  15.7 °C 30.1 in /  1017.5 hPa Calm     67 % 0 in /  0.0 mm
01:47 72.7 °F /  22.6 °C 60.3 °F /  15.7 °C 30.1 in /  1017.5 hPa Calm   1 mph /  1.6 km/h 65 % 0 in /  0.0 mm
01:52 72.3 °F /  22.4 °C 59.9 °F /  15.5 °C 30.1 in /  1017.5 hPa Calm   1 mph /  1.6 km/h 65 % 0 in /  0.0 mm
01:57 72.1 °F /  22.3 °C 60.1 °F /  15.6 °C 30.1 in /  1017.5 hPa West 1 mph /  1.6 km/h 2 mph /  3.2 km/h 66 % 0 in /  0.0 mm
02:02 72.1 °F /  22.3 °C 60.1 °F /  15.6 °C 30.1 in /  1017.5 hPa WNW 3 mph /  4.8 km/h 3 mph /  4.8 km/h 66 % 0 in /  0.0 mm
02:12 73 °F /  22.8 °C 61 °F /  16.1 °C 30.1 in /  1017.5 hPa WNW 1 mph /  1.6 km/h 4 mph /  6.4 km/h 66 % 0 in /  0.0 mm
02:17 73.2 °F /  22.9 °C 61.5 °F /  16.4 °C 30.1 in /  1017.5 hPa NW 2 mph /  3.2 km/h 3 mph /  4.8 km/h 67 % 0 in /  0.0 mm
02:22 73.2 °F /  22.9 °C 62.1 °F /  16.7 °C 30.1 in /  1017.5 hPa WNW 1 mph /  1.6 km/h 3 mph /  4.8 km/h 68 % 0 in /  0.0 mm
02:32 72.7 °F /  22.6 °C 61.9 °F /  16.6 °C 30.1 in /  1017.5 hPa Calm   3 mph /  4.8 km/h 69 % 0 in /  0.0 mm
02:37 72 °F /  22.2 °C 62.1 °F /  16.7 °C 30.1 in /  1017.5 hPa Calm   2 mph /  3.2 km/h 71 % 0 in /  0.0 mm
02:42 71.4 °F /  21.9 °C 61.5 °F /  16.4 °C 30.1 in /  1017.5 hPa Calm   2 mph /  3.2 km/h 71 % 0 in /  0.0 mm
02:47 71.2 °F /  21.8 °C 61.7 °F /  16.5 °C 30.1 in /  1017.5 hPa Calm   1 mph /  1.6 km/h 72 % 0 in /  0.0 mm
02:52 71.4 °F /  21.9 °C 62.8 °F /  17.1 °C 30.1 in /  1017.5 hPa Calm   1 mph /  1.6 km/h 74 % 0 in /  0.0 mm
02:57 71.4 °F /  21.9 °C 63.1 °F /  17.3 °C 30.1 in /  1017.5 hPa Calm     75 % 0 in /  0.0 mm
03:02 71.6 °F /  22.0 °C 63.3 °F /  17.4 °C 30.1 in /  1017.5 hPa Calm     75 % 0 in /  0.0 mm
03:12 70.7 °F /  21.5 °C 62.1 °F /  16.7 °C 30.1 in /  1017.5 hPa Calm     74 % 0 in /  0.0 mm
03:17 70.3 °F /  21.3 °C 61.7 °F /  16.5 °C 30.1 in /  1017.8 hPa Calm     74 % 0 in /  0.0 mm
03:22 70.2 °F /  21.2 °C 61.9 °F /  16.6 °C 30.1 in /  1017.5 hPa Calm     75 % 0 in /  0.0 mm
03:32 69.4 °F /  20.8 °C 61.5 °F /  16.4 °C 30.1 in /  1017.5 hPa Calm     76 % 0 in /  0.0 mm
03:37 69.4 °F /  20.8 °C 62.2 °F /  16.8 °C 30.1 in /  1017.8 hPa Calm     78 % 0 in /  0.0 mm
03:42 69.4 °F /  20.8 °C 62.6 °F /  17.0 °C 30.1 in /  1017.8 hPa Calm     79 % 0 in /  0.0 mm
03:47 69.4 °F /  20.8 °C 62.6 °F /  17.0 °C 30.1 in /  1017.8 hPa Calm     79 % 0 in /  0.0 mm
03:52 69.4 °F /  20.8 °C 63 °F /  17.2 °C 30.1 in /  1017.8 hPa Calm     80 % 0 in /  0.0 mm
03:57 69.4 °F /  20.8 °C 63 °F /  17.2 °C 30.1 in /  1017.8 hPa Calm     80 % 0 in /  0.0 mm
04:02 69.1 °F /  20.6 °C 62.6 °F /  17.0 °C 30.1 in /  1018.2 hPa Calm     80 % 0 in /  0.0 mm
04:12 69.1 °F /  20.6 °C 63.3 °F /  17.4 °C 30.1 in /  1018.2 hPa Calm     82 % 0 in /  0.0 mm
04:17 69.1 °F /  20.6 °C 63.3 °F /  17.4 °C 30.1 in /  1018.2 hPa Calm     82 % 0 in /  0.0 mm
04:22 69.1 °F /  20.6 °C 63.7 °F /  17.6 °C 30.1 in /  1017.8 hPa Calm     83 % 0 in /  0.0 mm
04:32 69.3 °F /  20.7 °C 64.2 °F /  17.9 °C 30.1 in /  1017.8 hPa Calm     84 % 0 in /  0.0 mm
04:37 69.3 °F /  20.7 °C 63.9 °F /  17.7 °C 30.1 in /  1017.8 hPa Calm     83 % 0 in /  0.0 mm
04:42 69.3 °F /  20.7 °C 64.2 °F /  17.9 °C 30.1 in /  1018.2 hPa WNW 1 mph /  1.6 km/h   84 % 0 in /  0.0 mm
04:47 69.1 °F /  20.6 °C 64 °F /  17.8 °C 30.1 in /  1018.2 hPa WNW 2 mph /  3.2 km/h 6 mph /  9.7 km/h 84 % 0 in /  0.0 mm
04:52 68.7 °F /  20.4 °C 64 °F /  17.8 °C 30.1 in /  1018.5 hPa Calm   6 mph /  9.7 km/h 85 % 0 in /  0.0 mm
04:57 68.7 °F /  20.4 °C 64 °F /  17.8 °C 30.1 in /  1018.5 hPa North 1 mph /  1.6 km/h 6 mph /  9.7 km/h 85 % 0 in /  0.0 mm
05:02 68.7 °F /  20.4 °C 64 °F /  17.8 °C 30.1 in /  1018.5 hPa WNW 5 mph /  8.0 km/h 6 mph /  9.7 km/h 85 % 0 in /  0.0 mm
05:12 68.5 °F /  20.3 °C 63.9 °F /  17.7 °C 30.1 in /  1018.8 hPa WNW 2 mph /  3.2 km/h 7 mph /  11.3 km/h 85 % 0 in /  0.0 mm
05:17 68.5 °F /  20.3 °C 63.9 °F /  17.7 °C 30.1 in /  1018.8 hPa Calm   7 mph /  11.3 km/h 85 % 0 in /  0.0 mm
05:22 68.4 °F /  20.2 °C 63.7 °F /  17.6 °C 30.1 in /  1018.8 hPa Calm   7 mph /  11.3 km/h 85 % 0 in /  0.0 mm
05:32 68 °F /  20.0 °C 63.3 °F /  17.4 °C 30.1 in /  1018.8 hPa NW 2 mph /  3.2 km/h 6 mph /  9.7 km/h 85 % 0 in /  0.0 mm
05:42 67.6 °F /  19.8 °C 63 °F /  17.2 °C 30.1 in /  1018.8 hPa Calm   6 mph /  9.7 km/h 85 % 0 in /  0.0 mm
05:47 67.5 °F /  19.7 °C 62.8 °F /  17.1 °C 30.1 in /  1018.8 hPa NW 1 mph /  1.6 km/h 7 mph /  11.3 km/h 85 % 0 in /  0.0 mm
05:52 67.3 °F /  19.6 °C 63 °F /  17.2 °C 30.1 in /  1018.8 hPa NNW 1 mph /  1.6 km/h 7 mph /  11.3 km/h 86 % 0 in /  0.0 mm
06:02 66.9 °F /  19.4 °C 62.6 °F /  17.0 °C 30.1 in /  1019.2 hPa NW 2 mph /  3.2 km/h 7 mph /  11.3 km/h 86 % 0 in /  0.0 mm
06:07 66.7 °F /  19.3 °C 62.4 °F /  16.9 °C 30.1 in /  1019.2 hPa WNW 6 mph /  9.7 km/h 7 mph /  11.3 km/h 86 % 0 in /  0.0 mm
06:12 66.6 °F /  19.2 °C 62.2 °F /  16.8 °C 30.1 in /  1018.8 hPa Calm   7 mph /  11.3 km/h 86 % 0 in /  0.0 mm
06:17 66.6 °F /  19.2 °C 62.2 °F /  16.8 °C 30.1 in /  1018.8 hPa Calm   6 mph /  9.7 km/h 86 % 0 in /  0.0 mm
06:27 66.2 °F /  19.0 °C 61.9 °F /  16.6 °C 30.1 in /  1019.2 hPa Calm   4 mph /  6.4 km/h 86 % 0 in /  0.0 mm
06:32 66 °F /  18.9 °C 61.7 °F /  16.5 °C 30.1 in /  1019.2 hPa WNW 1 mph /  1.6 km/h 4 mph /  6.4 km/h 86 % 0 in /  0.0 mm
06:37 66 °F /  18.9 °C 61.7 °F /  16.5 °C 30.1 in /  1019.5 hPa Calm   4 mph /  6.4 km/h 86 % 0 in /  0.0 mm
06:42 66 °F /  18.9 °C 61.3 °F /  16.3 °C 30.1 in /  1019.5 hPa NW 3 mph /  4.8 km/h 4 mph /  6.4 km/h 85 % 0 in /  0.0 mm
06:47 66.2 °F /  19.0 °C 61.5 °F /  16.4 °C 30.1 in /  1019.5 hPa Calm   6 mph /  9.7 km/h 85 % 0 in /  0.0 mm
06:57 66.4 °F /  19.1 °C 61.3 °F /  16.3 °C 30.1 in /  1019.9 hPa Calm   6 mph /  9.7 km/h 84 % 0 in /  0.0 mm
07:02 66.4 °F /  19.1 °C 61.3 °F /  16.3 °C 30.1 in /  1019.9 hPa North 2 mph /  3.2 km/h 6 mph /  9.7 km/h 84 % 0 in /  0.0 mm
07:12 66.6 °F /  19.2 °C 61.5 °F /  16.4 °C 30.1 in /  1019.9 hPa WNW 1 mph /  1.6 km/h 4 mph /  6.4 km/h 84 % 0 in /  0.0 mm
07:17 66.4 °F /  19.1 °C 61 °F /  16.1 °C 30.1 in /  1019.9 hPa West 1 mph /  1.6 km/h 5 mph /  8.0 km/h 83 % 0 in /  0.0 mm
07:22 66.4 °F /  19.1 °C 61.3 °F /  16.3 °C 30.1 in /  1019.9 hPa Calm   5 mph /  8.0 km/h 84 % 0 in /  0.0 mm
07:32 66.6 °F /  19.2 °C 61.2 °F /  16.2 °C 30.1 in /  1019.9 hPa Calm   3 mph /  4.8 km/h 83 % 0 in /  0.0 mm
07:42 66.9 °F /  19.4 °C 61 °F /  16.1 °C 30.1 in /  1019.9 hPa Calm   4 mph /  6.4 km/h 81 % 0 in /  0.0 mm
07:47 67.3 °F /  19.6 °C 61.2 °F /  16.2 °C 30.1 in /  1020.2 hPa Calm   4 mph /  6.4 km/h 81 % 0 in /  0.0 mm
07:52 67.5 °F /  19.7 °C 61.2 °F /  16.2 °C 30.1 in /  1020.2 hPa NNW 2 mph /  3.2 km/h 4 mph /  6.4 km/h 80 % 0 in /  0.0 mm
07:57 67.5 °F /  19.7 °C 61.2 °F /  16.2 °C 30.1 in /  1020.2 hPa Calm   3 mph /  4.8 km/h 80 % 0 in /  0.0 mm
08:07 67.5 °F /  19.7 °C 61.2 °F /  16.2 °C 30.1 in /  1020.5 hPa Calm   3 mph /  4.8 km/h 80 % 0 in /  0.0 mm
08:12 67.5 °F /  19.7 °C 60.8 °F /  16.0 °C 30.1 in /  1020.5 hPa Calm   3 mph /  4.8 km/h 79 % 0 in /  0.0 mm
08:17 67.5 °F /  19.7 °C 61.2 °F /  16.2 °C 30.1 in /  1020.2 hPa Calm   3 mph /  4.8 km/h 80 % 0 in /  0.0 mm
08:22 67.6 °F /  19.8 °C 61.2 °F /  16.2 °C 30.1 in /  1020.2 hPa Calm   3 mph /  4.8 km/h 80 % 0 in /  0.0 mm
08:32 67.8 °F /  19.9 °C 61 °F /  16.1 °C 30.1 in /  1020.5 hPa Calm   3 mph /  4.8 km/h 79 % 0 in /  0.0 mm
08:42 68.4 °F /  20.2 °C 61.5 °F /  16.4 °C 30.1 in /  1020.5 hPa ENE 1 mph /  1.6 km/h 1 mph /  1.6 km/h 79 % 0 in /  0.0 mm
08:52 68.4 °F /  20.2 °C 61.2 °F /  16.2 °C 30.2 in /  1020.9 hPa Calm   2 mph /  3.2 km/h 78 % 0 in /  0.0 mm
08:57 68.5 °F /  20.3 °C 61 °F /  16.1 °C 30.2 in /  1020.9 hPa Calm   2 mph /  3.2 km/h 77 % 0 in /  0.0 mm
09:02 68.5 °F /  20.3 °C 61.3 °F /  16.3 °C 30.2 in /  1020.9 hPa Calm   2 mph /  3.2 km/h 78 % 0 in /  0.0 mm
09:12 69.1 °F /  20.6 °C 61.5 °F /  16.4 °C 30.2 in /  1020.9 hPa Calm   3 mph /  4.8 km/h 77 % 0 in /  0.0 mm
09:17 69.3 °F /  20.7 °C 61.7 °F /  16.5 °C 30.2 in /  1020.9 hPa SW 1 mph /  1.6 km/h 3 mph /  4.8 km/h 77 % 0 in /  0.0 mm
09:22 69.1 °F /  20.6 °C 61.2 °F /  16.2 °C 30.2 in /  1021.2 hPa Calm   3 mph /  4.8 km/h 76 % 0 in /  0.0 mm
09:27 69.1 °F /  20.6 °C 61.5 °F /  16.4 °C 30.2 in /  1021.2 hPa Calm   2 mph /  3.2 km/h 77 % 0 in /  0.0 mm
09:32 69.1 °F /  20.6 °C 61.5 °F /  16.4 °C 30.2 in /  1021.2 hPa SSW 1 mph /  1.6 km/h 2 mph /  3.2 km/h 77 % 0 in /  0.0 mm
09:37 69.3 °F /  20.7 °C 61.7 °F /  16.5 °C 30.2 in /  1021.2 hPa Calm   2 mph /  3.2 km/h 77 % 0 in /  0.0 mm
09:42 69.6 °F /  20.9 °C 61.7 °F /  16.5 °C 30.2 in /  1021.2 hPa SW 1 mph /  1.6 km/h 2 mph /  3.2 km/h 76 % 0 in /  0.0 mm
09:47 69.3 °F /  20.7 °C 61.7 °F /  16.5 °C 30.2 in /  1021.2 hPa Calm   2 mph /  3.2 km/h 77 % 0 in /  0.0 mm
09:52 69.3 °F /  20.7 °C 61.7 °F /  16.5 °C 30.2 in /  1021.2 hPa Calm   2 mph /  3.2 km/h 77 % 0 in /  0.0 mm
10:02 69.3 °F /  20.7 °C 61.7 °F /  16.5 °C 30.2 in /  1021.2 hPa West 1 mph /  1.6 km/h 3 mph /  4.8 km/h 77 % 0 in /  0.0 mm
10:07 69.3 °F /  20.7 °C 61.7 °F /  16.5 °C 30.2 in /  1021.2 hPa WSW 1 mph /  1.6 km/h 3 mph /  4.8 km/h 77 % 0 in /  0.0 mm
10:12 69.3 °F /  20.7 °C 62.1 °F /  16.7 °C 30.2 in /  1021.2 hPa SSW 1 mph /  1.6 km/h 3 mph /  4.8 km/h 78 % 0 in /  0.0 mm
10:17 69.3 °F /  20.7 °C 61.7 °F /  16.5 °C 30.2 in /  1021.2 hPa SSW 3 mph /  4.8 km/h 4 mph /  6.4 km/h 77 % 0 in /  0.0 mm
10:22 69.4 °F /  20.8 °C 61.9 °F /  16.6 °C 30.2 in /  1021.6 hPa WSW 3 mph /  4.8 km/h 4 mph /  6.4 km/h 77 % 0 in /  0.0 mm
10:32 69.8 °F /  21.0 °C 61.9 °F /  16.6 °C 30.2 in /  1021.2 hPa West 4 mph /  6.4 km/h 4 mph /  6.4 km/h 76 % 0 in /  0.0 mm
10:42 70.7 °F /  21.5 °C 62.1 °F /  16.7 °C 30.2 in /  1021.2 hPa West 1 mph /  1.6 km/h 4 mph /  6.4 km/h 74 % 0 in /  0.0 mm
10:47 70.9 °F /  21.6 °C 61.9 °F /  16.6 °C 30.2 in /  1021.2 hPa SW 1 mph /  1.6 km/h 4 mph /  6.4 km/h 73 % 0 in /  0.0 mm
10:52 71.1 °F /  21.7 °C 61.9 °F /  16.6 °C 30.2 in /  1021.2 hPa SW 1 mph /  1.6 km/h 4 mph /  6.4 km/h 73 % 0 in /  0.0 mm
10:57 71.2 °F /  21.8 °C 62.1 °F /  16.7 °C 30.2 in /  1021.6 hPa Calm   4 mph /  6.4 km/h 73 % 0 in /  0.0 mm
11:02 71.6 °F /  22.0 °C 62.1 °F /  16.7 °C 30.2 in /  1021.6 hPa West 1 mph /  1.6 km/h 4 mph /  6.4 km/h 72 % 0 in /  0.0 mm
11:12 71.4 °F /  21.9 °C 62.2 °F /  16.8 °C 30.2 in /  1021.6 hPa West 1 mph /  1.6 km/h 2 mph /  3.2 km/h 73 % 0 in /  0.0 mm
11:17 71.2 °F /  21.8 °C 62.6 °F /  17.0 °C 30.2 in /  1021.6 hPa SSW 3 mph /  4.8 km/h 4 mph /  6.4 km/h 74 % 0 in /  0.0 mm
11:22 71.1 °F /  21.7 °C 62.8 °F /  17.1 °C 30.2 in /  1021.6 hPa SW 3 mph /  4.8 km/h 4 mph /  6.4 km/h 75 % 0 in /  0.0 mm
11:32 71.2 °F /  21.8 °C 63.3 °F /  17.4 °C 30.2 in /  1021.6 hPa Calm   6 mph /  9.7 km/h 76 % 0 in /  0.0 mm
11:42 71.1 °F /  21.7 °C 62.8 °F /  17.1 °C 30.2 in /  1021.6 hPa WNW 2 mph /  3.2 km/h 6 mph /  9.7 km/h 75 % 0 in /  0.0 mm
11:47 71.1 °F /  21.7 °C 63.1 °F /  17.3 °C 30.2 in /  1021.6 hPa Calm   6 mph /  9.7 km/h 76 % 0 in /  0.0 mm
11:52 71.2 °F /  21.8 °C 63.3 °F /  17.4 °C 30.2 in /  1021.6 hPa WSW 5 mph /  8.0 km/h 6 mph /  9.7 km/h 76 % 0 in /  0.0 mm
12:02 71.4 °F /  21.9 °C 63.5 °F /  17.5 °C 30.2 in /  1021.6 hPa WSW 3 mph /  4.8 km/h 7 mph /  11.3 km/h 76 % 0 in /  0.0 mm
12:12 71.8 °F /  22.1 °C 63.5 °F /  17.5 °C 30.2 in /  1021.6 hPa SW 2 mph /  3.2 km/h 7 mph /  11.3 km/h 75 % 0 in /  0.0 mm
12:17 72.1 °F /  22.3 °C 63.9 °F /  17.7 °C 30.2 in /  1021.6 hPa WNW 3 mph /  4.8 km/h 8 mph /  12.9 km/h 75 % 0 in /  0.0 mm
12:22 72.1 °F /  22.3 °C 63.3 °F /  17.4 °C 30.2 in /  1021.6 hPa WSW 7 mph /  11.3 km/h 8 mph /  12.9 km/h 74 % 0 in /  0.0 mm
12:27 72 °F /  22.2 °C 63.7 °F /  17.6 °C 30.2 in /  1021.6 hPa SW 8 mph /  12.9 km/h 9 mph /  14.5 km/h 75 % 0 in /  0.0 mm
12:32 72 °F /  22.2 °C 63.7 °F /  17.6 °C 30.2 in /  1021.6 hPa West 4 mph /  6.4 km/h 9 mph /  14.5 km/h 75 % 0 in /  0.0 mm
12:42 72.1 °F /  22.3 °C 63 °F /  17.2 °C 30.2 in /  1021.6 hPa West 5 mph /  8.0 km/h 11 mph /  17.7 km/h 73 % 0 in /  0.0 mm
12:47 72.3 °F /  22.4 °C 63.1 °F /  17.3 °C 30.2 in /  1021.6 hPa SW 5 mph /  8.0 km/h 8 mph /  12.9 km/h 73 % 0 in /  0.0 mm
12:52 72.5 °F /  22.5 °C 63 °F /  17.2 °C 30.2 in /  1021.6 hPa SW 4 mph /  6.4 km/h 8 mph /  12.9 km/h 72 % 0 in /  0.0 mm
13:02 72.3 °F /  22.4 °C 62.8 °F /  17.1 °C 30.2 in /  1021.9 hPa SW 6 mph /  9.7 km/h 7 mph /  11.3 km/h 72 % 0 in /  0.0 mm
13:07 72.5 °F /  22.5 °C 63.3 °F /  17.4 °C 30.2 in /  1021.6 hPa West 4 mph /  6.4 km/h 11 mph /  17.7 km/h 73 % 0 in /  0.0 mm
13:12 72.3 °F /  22.4 °C 63.1 °F /  17.3 °C 30.2 in /  1021.6 hPa WSW 5 mph /  8.0 km/h 11 mph /  17.7 km/h 73 % 0 in /  0.0 mm
13:17 72.3 °F /  22.4 °C 63.1 °F /  17.3 °C 30.2 in /  1021.9 hPa SW 8 mph /  12.9 km/h 12 mph /  19.3 km/h 73 % 0 in /  0.0 mm
13:22 72.3 °F /  22.4 °C 63.9 °F /  17.7 °C 30.2 in /  1021.9 hPa SW 10 mph /  16.1 km/h 12 mph /  19.3 km/h 75 % 0 in /  0.0 mm
13:32 71.6 °F /  22.0 °C 64 °F /  17.8 °C 30.2 in /  1021.9 hPa SW 5 mph /  8.0 km/h 13 mph /  20.9 km/h 77 % 0 in /  0.0 mm
13:42 71.4 °F /  21.9 °C 63.9 °F /  17.7 °C 30.2 in /  1022.2 hPa WSW 4 mph /  6.4 km/h 13 mph /  20.9 km/h 77 % 0 in /  0.0 mm
13:47 71.4 °F /  21.9 °C 64.2 °F /  17.9 °C 30.2 in /  1022.2 hPa WNW 5 mph /  8.0 km/h 11 mph /  17.7 km/h 78 % 0 in /  0.0 mm
13:52 71.1 °F /  21.7 °C 63.9 °F /  17.7 °C 30.2 in /  1022.2 hPa West 2 mph /  3.2 km/h 11 mph /  17.7 km/h 78 % 0 in /  0.0 mm
13:57 71.1 °F /  21.7 °C 64.2 °F /  17.9 °C 30.2 in /  1022.2 hPa WSW 4 mph /  6.4 km/h 11 mph /  17.7 km/h 79 % 0 in /  0.0 mm
14:02 70.9 °F /  21.6 °C 64 °F /  17.8 °C 30.2 in /  1022.2 hPa West 4 mph /  6.4 km/h 11 mph /  17.7 km/h 79 % 0 in /  0.0 mm
14:07 70.9 °F /  21.6 °C 64 °F /  17.8 °C 30.2 in /  1022.2 hPa West 2 mph /  3.2 km/h 11 mph /  17.7 km/h 79 % 0 in /  0.0 mm
14:12 70.9 °F /  21.6 °C 64 °F /  17.8 °C 30.2 in /  1022.2 hPa West 3 mph /  4.8 km/h 11 mph /  17.7 km/h 79 % 0 in /  0.0 mm
14:17 71.1 °F /  21.7 °C 63.9 °F /  17.7 °C 30.2 in /  1022.2 hPa West 7 mph /  11.3 km/h 10 mph /  16.1 km/h 78 % 0 in /  0.0 mm
14:22 70.7 °F /  21.5 °C 63.5 °F /  17.5 °C 30.2 in /  1022.2 hPa NNW 3 mph /  4.8 km/h 10 mph /  16.1 km/h 78 % 0 in /  0.0 mm
14:32 70.7 °F /  21.5 °C 63.5 °F /  17.5 °C 30.2 in /  1022.2 hPa WNW 3 mph /  4.8 km/h 13 mph /  20.9 km/h 78 % 0 in /  0.0 mm
14:37 70.5 °F /  21.4 °C 63.7 °F /  17.6 °C 30.2 in /  1022.2 hPa WSW 5 mph /  8.0 km/h 11 mph /  17.7 km/h 79 % 0 in /  0.0 mm
14:42 70.3 °F /  21.3 °C 63.5 °F /  17.5 °C 30.2 in /  1022.2 hPa West 10 mph /  16.1 km/h 11 mph /  17.7 km/h 79 % 0 in /  0.0 mm
14:52 70 °F /  21.1 °C 63.5 °F /  17.5 °C 30.2 in /  1022.2 hPa West 7 mph /  11.3 km/h 11 mph /  17.7 km/h 80 % 0 in /  0.0 mm
14:57 69.6 °F /  20.9 °C 63.1 °F /  17.3 °C 30.2 in /  1022.2 hPa WNW 6 mph /  9.7 km/h 12 mph /  19.3 km/h 80 % 0 in /  0.0 mm
15:02 69.8 °F /  21.0 °C 63.7 °F /  17.6 °C 30.2 in /  1022.2 hPa West 3 mph /  4.8 km/h 12 mph /  19.3 km/h 81 % 0 in /  0.0 mm
15:07 70.2 °F /  21.2 °C 63.7 °F /  17.6 °C 30.2 in /  1022.2 hPa WNW 5 mph /  8.0 km/h 11 mph /  17.7 km/h 80 % 0 in /  0.0 mm
15:12 70.3 °F /  21.3 °C 63.5 °F /  17.5 °C 30.2 in /  1022.2 hPa WNW 8 mph /  12.9 km/h 11 mph /  17.7 km/h 79 % 0 in /  0.0 mm
15:22 70.5 °F /  21.4 °C 63.7 °F /  17.6 °C 30.2 in /  1022.2 hPa WNW 4 mph /  6.4 km/h 12 mph /  19.3 km/h 79 % 0 in /  0.0 mm
15:27 70.7 °F /  21.5 °C 63.5 °F /  17.5 °C 30.2 in /  1022.2 hPa WNW 7 mph /  11.3 km/h 11 mph /  17.7 km/h 78 % 0 in /  0.0 mm
15:32 71.4 °F /  21.9 °C 63.9 °F /  17.7 °C 30.2 in /  1022.2 hPa Calm   11 mph /  17.7 km/h 77 % 0 in /  0.0 mm
15:37 72 °F /  22.2 °C 64 °F /  17.8 °C 30.2 in /  1021.9 hPa WNW 3 mph /  4.8 km/h 10 mph /  16.1 km/h 76 % 0 in /  0.0 mm
15:42 72.3 °F /  22.4 °C 63.9 °F /  17.7 °C 30.2 in /  1021.9 hPa Calm   10 mph /  16.1 km/h 75 % 0 in /  0.0 mm
15:47 73 °F /  22.8 °C 63.9 °F /  17.7 °C 30.2 in /  1021.9 hPa WNW 2 mph /  3.2 km/h 11 mph /  17.7 km/h 73 % 0 in /  0.0 mm
15:52 73 °F /  22.8 °C 63.1 °F /  17.3 °C 30.2 in /  1021.9 hPa NE 2 mph /  3.2 km/h 11 mph /  17.7 km/h 71 % 0 in /  0.0 mm
15:57 73.2 °F /  22.9 °C 63.7 °F /  17.6 °C 30.2 in /  1021.9 hPa WSW 3 mph /  4.8 km/h 11 mph /  17.7 km/h 72 % 0 in /  0.0 mm
16:02 73.8 °F /  23.2 °C 63.3 °F /  17.4 °C 30.2 in /  1021.6 hPa West 4 mph /  6.4 km/h 11 mph /  17.7 km/h 70 % 0 in /  0.0 mm
16:07 74.5 °F /  23.6 °C 63.7 °F /  17.6 °C 30.2 in /  1021.6 hPa WSW 5 mph /  8.0 km/h 11 mph /  17.7 km/h 69 % 0 in /  0.0 mm
16:12 74.5 °F /  23.6 °C 62.8 °F /  17.1 °C 30.2 in /  1021.6 hPa SSW 3 mph /  4.8 km/h 11 mph /  17.7 km/h 67 % 0 in /  0.0 mm
16:17 74.8 °F /  23.8 °C 62.8 °F /  17.1 °C 30.2 in /  1021.6 hPa WSW 2 mph /  3.2 km/h 11 mph /  17.7 km/h 66 % 0 in /  0.0 mm
16:22 75 °F /  23.9 °C 63 °F /  17.2 °C 30.2 in /  1021.6 hPa WSW 4 mph /  6.4 km/h 11 mph /  17.7 km/h 66 % 0 in /  0.0 mm
16:32 75.7 °F /  24.3 °C 62.2 °F /  16.8 °C 30.2 in /  1021.6 hPa SW 6 mph /  9.7 km/h 9 mph /  14.5 km/h 63 % 0 in /  0.0 mm
16:42 75.9 °F /  24.4 °C 62.4 °F /  16.9 °C 30.2 in /  1021.6 hPa SW 5 mph /  8.0 km/h 11 mph /  17.7 km/h 63 % 0 in /  0.0 mm
16:52 75.9 °F /  24.4 °C 62.8 °F /  17.1 °C 30.2 in /  1021.2 hPa West 2 mph /  3.2 km/h 12 mph /  19.3 km/h 64 % 0 in /  0.0 mm
16:57 76.3 °F /  24.6 °C 62.8 °F /  17.1 °C 30.2 in /  1021.2 hPa WNW 4 mph /  6.4 km/h 10 mph /  16.1 km/h 63 % 0 in /  0.0 mm
17:02 76.5 °F /  24.7 °C 62.4 °F /  16.9 °C 30.2 in /  1021.2 hPa West 3 mph /  4.8 km/h 10 mph /  16.1 km/h 62 % 0 in /  0.0 mm
17:12 76.5 °F /  24.7 °C 62.4 °F /  16.9 °C 30.2 in /  1021.2 hPa WSW 4 mph /  6.4 km/h 8 mph /  12.9 km/h 62 % 0 in /  0.0 mm
17:17 76.6 °F /  24.8 °C 63.1 °F /  17.3 °C 30.2 in /  1021.2 hPa WNW 3 mph /  4.8 km/h 7 mph /  11.3 km/h 63 % 0 in /  0.0 mm
17:22 76.8 °F /  24.9 °C 62.4 °F /  16.9 °C 30.2 in /  1020.9 hPa WSW 2 mph /  3.2 km/h 7 mph /  11.3 km/h 61 % 0 in /  0.0 mm
17:27 77.5 °F /  25.3 °C 62.6 °F /  17.0 °C 30.2 in /  1020.9 hPa WNW 8 mph /  12.9 km/h 9 mph /  14.5 km/h 60 % 0 in /  0.0 mm
17:32 77.9 °F /  25.5 °C 61.9 °F /  16.6 °C 30.2 in /  1020.9 hPa WSW 6 mph /  9.7 km/h 9 mph /  14.5 km/h 58 % 0 in /  0.0 mm
17:37 77.7 °F /  25.4 °C 62.2 °F /  16.8 °C 30.2 in /  1020.9 hPa SW 3 mph /  4.8 km/h 13 mph /  20.9 km/h 59 % 0 in /  0.0 mm
17:42 77.9 °F /  25.5 °C 61.5 °F /  16.4 °C 30.2 in /  1020.9 hPa South 2 mph /  3.2 km/h 13 mph /  20.9 km/h 57 % 0 in /  0.0 mm
17:52 78.4 °F /  25.8 °C 61.5 °F /  16.4 °C 30.2 in /  1020.9 hPa WNW 5 mph /  8.0 km/h 11 mph /  17.7 km/h 56 % 0 in /  0.0 mm
17:57 78.3 °F /  25.7 °C 61.3 °F /  16.3 °C 30.1 in /  1020.5 hPa SW 3 mph /  4.8 km/h 11 mph /  17.7 km/h 56 % 0 in /  0.0 mm
18:02 78.4 °F /  25.8 °C 61.5 °F /  16.4 °C 30.1 in /  1020.5 hPa WSW 3 mph /  4.8 km/h 11 mph /  17.7 km/h 56 % 0 in /  0.0 mm
18:07 78.1 °F /  25.6 °C 61.2 °F /  16.2 °C 30.1 in /  1020.5 hPa West 1 mph /  1.6 km/h 12 mph /  19.3 km/h 56 % 0 in /  0.0 mm
18:12 78.1 °F /  25.6 °C 61.5 °F /  16.4 °C 30.1 in /  1020.5 hPa WSW 4 mph /  6.4 km/h 12 mph /  19.3 km/h 57 % 0 in /  0.0 mm
18:17 78.3 °F /  25.7 °C 61.7 °F /  16.5 °C 30.1 in /  1020.5 hPa WNW 3 mph /  4.8 km/h 12 mph /  19.3 km/h 57 % 0 in /  0.0 mm
18:22 78.4 °F /  25.8 °C 61 °F /  16.1 °C 30.1 in /  1020.5 hPa WSW 10 mph /  16.1 km/h 10 mph /  16.1 km/h 55 % 0 in /  0.0 mm
18:27 78.1 °F /  25.6 °C 61.5 °F /  16.4 °C 30.1 in /  1020.5 hPa WNW 2 mph /  3.2 km/h 9 mph /  14.5 km/h 57 % 0 in /  0.0 mm
18:32 78.1 °F /  25.6 °C 61.5 °F /  16.4 °C 30.1 in /  1020.5 hPa WSW 3 mph /  4.8 km/h 12 mph /  19.3 km/h 57 % 0 in /  0.0 mm
18:37 77.7 °F /  25.4 °C 61.3 °F /  16.3 °C 30.1 in /  1020.5 hPa WSW 10 mph /  16.1 km/h 12 mph /  19.3 km/h 57 % 0 in /  0.0 mm
18:42 77.5 °F /  25.3 °C 61.5 °F /  16.4 °C 30.1 in /  1020.5 hPa WSW 2 mph /  3.2 km/h 12 mph /  19.3 km/h 58 % 0 in /  0.0 mm
18:52 77.5 °F /  25.3 °C 61.5 °F /  16.4 °C 30.1 in /  1020.5 hPa WSW 5 mph /  8.0 km/h 12 mph /  19.3 km/h 58 % 0 in /  0.0 mm
18:57 77.2 °F /  25.1 °C 61.3 °F /  16.3 °C 30.1 in /  1020.5 hPa SW 7 mph /  11.3 km/h 11 mph /  17.7 km/h 58 % 0 in /  0.0 mm
19:02 77 °F /  25.0 °C 62.1 °F /  16.7 °C 30.1 in /  1020.5 hPa SW 5 mph /  8.0 km/h 11 mph /  17.7 km/h 60 % 0 in /  0.0 mm
19:12 76.6 °F /  24.8 °C 61.7 °F /  16.5 °C 30.1 in /  1020.5 hPa SW 5 mph /  8.0 km/h 11 mph /  17.7 km/h 60 % 0 in /  0.0 mm
19:17 76.6 °F /  24.8 °C 61.7 °F /  16.5 °C 30.1 in /  1020.5 hPa SW 5 mph /  8.0 km/h 9 mph /  14.5 km/h 60 % 0 in /  0.0 mm
19:22 76.6 °F /  24.8 °C 62.2 °F /  16.8 °C 30.1 in /  1020.5 hPa SW 1 mph /  1.6 km/h 9 mph /  14.5 km/h 61 % 0 in /  0.0 mm
19:27 77 °F /  25.0 °C 62.1 °F /  16.7 °C 30.1 in /  1020.5 hPa WSW 4 mph /  6.4 km/h 6 mph /  9.7 km/h 60 % 0 in /  0.0 mm
19:32 77.5 °F /  25.3 °C 62.6 °F /  17.0 °C 30.1 in /  1020.2 hPa SSW 4 mph /  6.4 km/h 6 mph /  9.7 km/h 60 % 0 in /  0.0 mm
19:37 77.7 °F /  25.4 °C 62.2 °F /  16.8 °C 30.1 in /  1020.5 hPa WNW 1 mph /  1.6 km/h 7 mph /  11.3 km/h 59 % 0 in /  0.0 mm
19:42 78.3 °F /  25.7 °C 61.7 °F /  16.5 °C 30.1 in /  1020.5 hPa West 3 mph /  4.8 km/h 7 mph /  11.3 km/h 57 % 0 in /  0.0 mm
19:52 77.5 °F /  25.3 °C 61.5 °F /  16.4 °C 30.1 in /  1020.5 hPa NW 3 mph /  4.8 km/h 9 mph /  14.5 km/h 58 % 0 in /  0.0 mm
19:57 77.5 °F /  25.3 °C 61.5 °F /  16.4 °C 30.1 in /  1020.5 hPa WNW 3 mph /  4.8 km/h 9 mph /  14.5 km/h 58 % 0 in /  0.0 mm
20:02 77.7 °F /  25.4 °C 61.7 °F /  16.5 °C 30.1 in /  1020.5 hPa West 3 mph /  4.8 km/h 9 mph /  14.5 km/h 58 % 0 in /  0.0 mm
20:12 77.2 °F /  25.1 °C 61.7 °F /  16.5 °C 30.1 in /  1020.5 hPa West 1 mph /  1.6 km/h 8 mph /  12.9 km/h 59 % 0 in /  0.0 mm
20:17 76.8 °F /  24.9 °C 61.3 °F /  16.3 °C 30.2 in /  1020.9 hPa West 3 mph /  4.8 km/h 7 mph /  11.3 km/h 59 % 0 in /  0.0 mm
20:22 76.8 °F /  24.9 °C 61.9 °F /  16.6 °C 30.2 in /  1020.9 hPa WNW 2 mph /  3.2 km/h 7 mph /  11.3 km/h 60 % 0 in /  0.0 mm
20:27 76.8 °F /  24.9 °C 61.3 °F /  16.3 °C 30.2 in /  1020.9 hPa West 4 mph /  6.4 km/h 6 mph /  9.7 km/h 59 % 0 in /  0.0 mm
20:32 76.8 °F /  24.9 °C 61.9 °F /  16.6 °C 30.2 in /  1020.9 hPa WNW 2 mph /  3.2 km/h 6 mph /  9.7 km/h 60 % 0 in /  0.0 mm
20:42 76.6 °F /  24.8 °C 61.7 °F /  16.5 °C 30.2 in /  1020.9 hPa WNW 7 mph /  11.3 km/h 7 mph /  11.3 km/h 60 % 0 in /  0.0 mm
20:47 76.5 °F /  24.7 °C 61.5 °F /  16.4 °C 30.2 in /  1020.9 hPa WNW 6 mph /  9.7 km/h 7 mph /  11.3 km/h 60 % 0 in /  0.0 mm
20:52 76.6 °F /  24.8 °C 61.7 °F /  16.5 °C 30.2 in /  1020.9 hPa WNW 3 mph /  4.8 km/h 7 mph /  11.3 km/h 60 % 0 in /  0.0 mm
21:02 76.5 °F /  24.7 °C 62.1 °F /  16.7 °C 30.2 in /  1020.9 hPa Calm   7 mph /  11.3 km/h 61 % 0 in /  0.0 mm
21:07 76.3 °F /  24.6 °C 61.9 °F /  16.6 °C 30.2 in /  1020.9 hPa Calm   3 mph /  4.8 km/h 61 % 0 in /  0.0 mm
21:12 76.1 °F /  24.5 °C 62.1 °F /  16.7 °C 30.2 in /  1020.9 hPa Calm   3 mph /  4.8 km/h 62 % 0 in /  0.0 mm
21:17 75.7 °F /  24.3 °C 61.9 °F /  16.6 °C 30.2 in /  1021.2 hPa Calm   2 mph /  3.2 km/h 62 % 0 in /  0.0 mm
21:22 75.4 °F /  24.1 °C 61.5 °F /  16.4 °C 30.2 in /  1021.2 hPa Calm   2 mph /  3.2 km/h 62 % 0 in /  0.0 mm
21:27 75 °F /  23.9 °C 61.5 °F /  16.4 °C 30.2 in /  1021.2 hPa Calm   1 mph /  1.6 km/h 63 % 0 in /  0.0 mm
21:32 74.7 °F /  23.7 °C 61.7 °F /  16.5 °C 30.2 in /  1021.2 hPa Calm   1 mph /  1.6 km/h 64 % 0 in /  0.0 mm
21:37 74.5 °F /  23.6 °C 61.5 °F /  16.4 °C 30.2 in /  1021.2 hPa Calm   1 mph /  1.6 km/h 64 % 0 in /  0.0 mm
21:42 74.1 °F /  23.4 °C 61.5 °F /  16.4 °C 30.2 in /  1021.6 hPa Calm   1 mph /  1.6 km/h 65 % 0 in /  0.0 mm
21:52 73.4 °F /  23.0 °C 61.7 °F /  16.5 °C 30.2 in /  1021.6 hPa Calm   1 mph /  1.6 km/h 67 % 0 in /  0.0 mm
21:57 72.9 °F /  22.7 °C 61.3 °F /  16.3 °C 30.2 in /  1021.6 hPa Calm   1 mph /  1.6 km/h 67 % 0 in /  0.0 mm
22:02 72.5 °F /  22.5 °C 61.3 °F /  16.3 °C 30.2 in /  1021.6 hPa Calm   1 mph /  1.6 km/h 68 % 0 in /  0.0 mm
22:12 72 °F /  22.2 °C 61.7 °F /  16.5 °C 30.2 in /  1021.6 hPa WSW 1 mph /  1.6 km/h 1 mph /  1.6 km/h 70 % 0 in /  0.0 mm
22:17 71.6 °F /  22.0 °C 61.7 °F /  16.5 °C 30.2 in /  1021.6 hPa West 1 mph /  1.6 km/h 1 mph /  1.6 km/h 71 % 0 in /  0.0 mm
22:27 70.9 °F /  21.6 °C 61.3 °F /  16.3 °C 30.2 in /  1021.6 hPa Calm   1 mph /  1.6 km/h 72 % 0 in /  0.0 mm
22:32 70.3 °F /  21.3 °C 61.3 °F /  16.3 °C 30.2 in /  1021.6 hPa Calm   1 mph /  1.6 km/h 73 % 0 in /  0.0 mm
22:37 70.2 °F /  21.2 °C 61.5 °F /  16.4 °C 30.2 in /  1021.9 hPa Calm   1 mph /  1.6 km/h 74 % 0 in /  0.0 mm
22:42 70 °F /  21.1 °C 61.3 °F /  16.3 °C 30.2 in /  1021.9 hPa Calm   1 mph /  1.6 km/h 74 % 0 in /  0.0 mm
22:47 69.6 °F /  20.9 °C 61 °F /  16.1 °C 30.2 in /  1021.9 hPa Calm   1 mph /  1.6 km/h 74 % 0 in /  0.0 mm
22:52 69.3 °F /  20.7 °C 61 °F /  16.1 °C 30.2 in /  1021.9 hPa Calm   1 mph /  1.6 km/h 75 % 0 in /  0.0 mm
22:57 68.7 °F /  20.4 °C 60.4 °F /  15.8 °C 30.2 in /  1021.9 hPa Calm   1 mph /  1.6 km/h 75 % 0 in /  0.0 mm
23:02 68.2 °F /  20.1 °C 60.3 °F /  15.7 °C 30.2 in /  1021.9 hPa Calm   1 mph /  1.6 km/h 76 % 0 in /  0.0 mm
23:12 67.6 °F /  19.8 °C 60.6 °F /  15.9 °C 30.2 in /  1021.9 hPa Calm     78 % 0 in /  0.0 mm
23:17 67.3 °F /  19.6 °C 60.3 °F /  15.7 °C 30.2 in /  1021.9 hPa Calm     78 % 0 in /  0.0 mm
23:22 66.9 °F /  19.4 °C 60.3 °F /  15.7 °C 30.2 in /  1021.9 hPa Calm     79 % 0 in /  0.0 mm
23:32 66.4 °F /  19.1 °C 60.1 °F /  15.6 °C 30.2 in /  1021.9 hPa Calm     80 % 0 in /  0.0 mm
23:37 66.2 °F /  19.0 °C 59.9 °F /  15.5 °C 30.2 in /  1021.9 hPa Calm     80 % 0 in /  0.0 mm
23:42 66 °F /  18.9 °C 60.4 °F /  15.8 °C 30.2 in /  1021.9 hPa Calm     82 % 0 in /  0.0 mm
23:52 65.8 °F /  18.8 °C 60.3 °F /  15.7 °C 30.2 in /  1021.9 hPa Calm     82 % 0 in /  0.0 mm
23:57 65.8 °F /  18.8 °C 60.3 °F /  15.7 °C 30.2 in /  1021.9 hPa Calm     82 % 0 in /  0.0 mm
Meteo18
Compliments of Weather Underground - 4 mb

Script developed by  Jim McMurry - jmcmurry@mwt.net Adapted for the template by  Wim van der Kuil - Leuven-Template.eu

You find our weather info also at:

European Weather Network

Weather Underground

Equipment we use:

Weather-station
Davis Vue

Weather-program
Meteohub

Weather-server
Raspberry PI 2 B+

Provider
1 and 1

Davis Vue

Meteohub

Raspberry PI 2 B+

1 and 1